Time;durP1;ratioP1;P1;durP2;ratioP2;P2;SDS_P1;SDS_P2;PMS_P1;PMS_P2;Temp;Humidity;BMP_temperature;BMP_pressure;BME280_temperature;BME280_humidity;BME280_pressure;Samples;Min_cycle;Max_cycle;Signal;HPM_P1;HPM_P2
2023/01/11 00:00:48;;;;;;;7.90;1.20;;;;;;;6.77;100.00;100251.16;5203860;28;20032;-72
2023/01/11 00:03:18;;;;;;;7.47;1.30;;;;;;;6.74;100.00;100248.66;5219899;28;20055;-71
2023/01/11 00:05:49;;;;;;;6.28;1.30;;;;;;;6.73;100.00;100250.38;5233232;28;20021;-71
2023/01/11 00:08:20;;;;;;;3.45;0.80;;;;;;;6.75;100.00;100245.16;5227814;28;20029;-71
2023/01/11 00:10:52;;;;;;;6.65;0.93;;;;;;;6.82;100.00;100232.00;5228123;28;20032;-71
2023/01/11 00:13:22;;;;;;;8.27;1.15;;;;;;;6.83;100.00;100230.22;5225591;28;20062;-71
2023/01/11 00:15:53;;;;;;;3.88;1.00;;;;;;;6.83;100.00;100227.63;5208979;28;20061;-71
2023/01/11 00:18:23;;;;;;;5.20;1.10;;;;;;;6.85;100.00;100220.66;5230584;28;20029;-71
2023/01/11 00:20:53;;;;;;;3.03;0.80;;;;;;;6.95;100.00;100214.34;5226761;28;20035;-71
2023/01/11 00:23:23;;;;;;;4.68;0.90;;;;;;;6.87;100.00;100205.88;5220735;28;20102;-72
2023/01/11 00:25:54;;;;;;;2.67;0.80;;;;;;;6.90;100.00;100200.63;5205983;28;20024;-71
2023/01/11 00:28:24;;;;;;;4.90;1.00;;;;;;;6.89;100.00;100201.50;5226900;28;20060;-71
2023/01/11 00:30:54;;;;;;;5.50;1.15;;;;;;;6.90;100.00;100192.84;5221230;28;20028;-71
2023/01/11 00:33:25;;;;;;;5.20;0.98;;;;;;;6.91;100.00;100204.94;5222524;28;20498;-71
2023/01/11 00:35:55;;;;;;;8.07;1.17;;;;;;;6.86;100.00;100196.38;5229456;28;20021;-72
2023/01/11 00:38:45;;;;;;;4.78;1.08;;;;;;;6.86;100.00;100198.97;5231709;28;20482;-71
2023/01/11 00:50:04;;;;;;;4.68;0.90;;;;;;;6.81;100.00;100185.28;5226636;28;20397;-72
2023/01/11 00:52:35;;;;;;;4.25;0.90;;;;;;;6.81;100.00;100177.47;5221759;28;20025;-71
2023/01/11 00:55:05;;;;;;;4.78;1.08;;;;;;;6.92;100.00;100176.28;5219857;28;20033;-71
2023/01/11 00:57:36;;;;;;;4.43;0.80;;;;;;;6.87;100.00;100179.91;5210430;28;20025;-72
2023/01/11 01:00:06;;;;;;;3.72;0.80;;;;;;;6.99;100.00;100189.97;5219742;28;20064;-71
2023/01/11 01:02:37;;;;;;;5.78;0.77;;;;;;;7.01;100.00;100172.59;5207385;28;20548;-72
2023/01/11 01:05:07;;;;;;;4.60;0.80;;;;;;;7.02;100.00;100169.97;5220143;28;20020;-70
2023/01/11 01:07:37;;;;;;;6.00;1.17;;;;;;;6.98;100.00;100170.97;5218030;28;20047;-71
2023/01/11 01:10:10;;;;;;;4.57;0.82;;;;;;;7.11;100.00;100171.47;5225817;28;20021;-72
2023/01/11 01:15:30;;;;;;;4.28;0.70;;;;;;;7.14;100.00;100163.56;5227091;28;20527;-71
2023/01/11 01:18:00;;;;;;;4.03;0.77;;;;;;;7.16;100.00;100169.56;5226068;28;20098;-71
2023/01/11 01:20:31;;;;;;;3.97;0.82;;;;;;;7.16;100.00;100173.03;5230650;28;20037;-72
2023/01/11 01:23:01;;;;;;;1.10;0.60;;;;;;;7.22;100.00;100171.97;5222200;28;20039;-72
2023/01/11 01:25:31;;;;;;;4.57;0.80;;;;;;;7.28;100.00;100183.94;5220483;28;20068;-72
2023/01/11 01:28:02;;;;;;;1.98;0.60;;;;;;;7.22;100.00;100169.38;5220061;28;20059;-71
2023/01/11 01:30:32;;;;;;;5.68;1.00;;;;;;;7.22;100.00;100178.88;5220123;28;20025;-72
2023/01/11 01:33:02;;;;;;;4.53;0.80;;;;;;;7.24;100.00;100173.66;5230383;28;20033;-72
2023/01/11 01:35:36;;;;;;;4.38;0.80;;;;;;;7.29;100.00;100172.63;5227755;28;20068;-71
2023/01/11 01:38:06;;;;;;;4.38;0.80;;;;;;;7.35;100.00;100167.25;5203365;28;20028;-71
2023/01/11 01:40:45;;;;;;;4.82;0.80;;;;;;;7.30;100.00;100179.53;5225661;28;20044;-72
2023/01/11 01:43:16;;;;;;;4.72;0.90;;;;;;;7.48;100.00;100172.94;5235375;28;20085;-72
2023/01/11 01:45:48;;;;;;;3.05;1.00;;;;;;;7.42;100.00;100168.78;5226633;28;20502;-72
2023/01/11 01:48:21;;;;;;;1.88;0.60;;;;;;;7.48;100.00;100166.00;5221017;28;20029;-71
2023/01/11 01:50:55;;;;;;;1.85;0.50;;;;;;;7.50;100.00;100169.41;5235495;28;20459;-71
2023/01/11 01:53:34;;;;;;;3.08;0.80;;;;;;;7.42;100.00;100161.00;5223406;28;20122;-72
2023/01/11 01:56:09;;;;;;;3.45;0.77;;;;;;;7.37;100.00;100162.03;5223743;28;20045;-71
2023/01/11 01:59:11;;;;;;;9.57;1.27;;;;;;;7.42;100.00;100155.78;5223000;28;20028;-72
2023/01/11 02:01:48;;;;;;;3.72;0.75;;;;;;;7.45;100.00;100155.69;5226970;28;20558;-72
2023/01/11 02:04:29;;;;;;;4.25;0.73;;;;;;;7.44;100.00;100160.94;5225928;28;20036;-72
2023/01/11 02:07:13;;;;;;;4.32;0.75;;;;;;;7.47;100.00;100156.50;5223198;28;20286;-71
2023/01/11 02:09:50;;;;;;;3.67;0.60;;;;;;;7.45;100.00;100145.31;5231863;28;20498;-72
2023/01/11 02:12:21;;;;;;;2.50;0.63;;;;;;;7.55;100.00;100149.31;5227468;28;20107;-72
2023/01/11 02:14:53;;;;;;;6.82;0.80;;;;;;;7.54;100.00;100146.78;5222668;28;20027;-72
2023/01/11 02:17:24;;;;;;;4.65;0.60;;;;;;;7.58;100.00;100140.56;5223414;28;20083;-71
2023/01/11 02:19:57;;;;;;;2.75;0.50;;;;;;;7.52;100.00;100133.81;5204578;28;20052;-72
2023/01/11 02:22:49;;;;;;;2.38;0.60;;;;;;;7.54;100.00;100137.19;5227494;28;20539;-72
2023/01/11 02:25:31;;;;;;;1.98;0.40;;;;;;;7.61;100.00;100133.53;5220800;28;20067;-72
2023/01/11 02:28:13;;;;;;;2.55;0.65;;;;;;;7.70;100.00;100116.81;5224972;28;20498;-72
2023/01/11 02:30:59;;;;;;;2.15;0.60;;;;;;;7.61;100.00;100102.34;5231136;28;20502;-71
2023/01/11 02:33:32;;;;;;;;;;;;;;;7.69;100.00;100108.13;5254057;22;20105;-76
2023/01/11 02:36:16;;;;;;;2.10;0.68;;;;;;;7.64;100.00;100102.22;5225234;28;19927;-77
2023/01/11 02:39:25;;;;;;;2.92;0.40;;;;;;;7.70;100.00;100098.59;5226270;28;20666;-76
2023/01/11 02:45:11;;;;;;;1.73;0.40;;;;;;;7.54;100.00;100093.00;5228889;28;20028;-76
2023/01/11 02:48:03;;;;;;;4.28;0.80;;;;;;;7.54;100.00;100095.59;5220804;28;20074;-76
2023/01/11 02:50:41;;;;;;;2.20;0.40;;;;;;;7.58;100.00;100084.22;5226453;28;20052;-76
2023/01/11 02:53:29;;;;;;;2.15;0.60;;;;;;;7.56;100.00;100079.97;5211300;28;20410;-73
2023/01/11 02:56:06;;;;;;;3.78;0.60;;;;;;;7.45;100.00;100071.66;5222098;28;20452;-76
2023/01/11 02:58:40;;;;;;;1.45;0.50;;;;;;;7.43;100.00;100074.31;5228253;28;20040;-77
2023/01/11 03:01:11;;;;;;;1.40;0.40;;;;;;;7.42;100.00;100059.63;5227127;28;20028;-76
2023/01/11 03:03:42;;;;;;;0.93;0.32;;;;;;;7.46;100.00;100058.59;5223639;28;20082;-77
2023/01/11 03:06:19;;;;;;;2.17;0.50;;;;;;;7.42;100.00;100058.75;5227911;28;20025;-76
2023/01/11 03:09:08;;;;;;;2.25;0.50;;;;;;;7.37;100.00;100053.69;5224977;28;20086;-77
2023/01/11 03:15:01;;;;;;;1.67;0.40;;;;;;;7.44;100.00;100039.63;5225263;28;20418;-76
2023/01/11 03:17:43;;;;;;;2.38;0.52;;;;;;;7.44;100.00;100041.34;5220458;28;20024;-77
2023/01/11 03:20:29;;;;;;;3.58;0.85;;;;;;;7.54;100.00;100048.81;5225121;28;20585;-76
2023/01/11 03:23:29;;;;;;;1.85;0.68;;;;;;;7.65;100.00;100040.66;5207792;28;20032;-77
2023/01/11 03:26:14;;;;;;;3.15;0.65;;;;;;;7.60;100.00;100050.38;5220563;28;20121;-76
2023/01/11 03:29:06;;;;;;;2.22;0.63;;;;;;;7.68;100.00;100051.81;5225836;28;20021;-76
2023/01/11 03:31:47;;;;;;;4.40;0.60;;;;;;;7.74;100.00;100042.97;5224467;28;20040;-77
2023/01/11 03:34:49;;;;;;;2.38;0.50;;;;;;;7.68;100.00;100044.03;5226092;28;20509;-76
2023/01/11 03:37:33;;;;;;;2.15;0.70;;;;;;;7.77;100.00;100041.13;5217024;28;20091;-76
2023/01/11 03:40:10;;;;;;;1.90;0.60;;;;;;;7.71;100.00;100036.13;5231868;28;20086;-77
2023/01/11 03:45:41;;;;;;;3.55;0.95;;;;;;;7.87;100.00;100041.69;5221774;28;20036;-76
2023/01/11 03:48:20;;;;;;;3.13;0.80;;;;;;;7.92;100.00;100029.38;5220116;28;20024;-76
2023/01/11 03:50:53;;;;;;;6.07;1.00;;;;;;;7.96;100.00;100033.56;5219577;28;20021;-77
2023/01/11 03:53:27;;;;;;;2.92;0.60;;;;;;;7.97;100.00;100030.03;5221126;28;20540;-76
2023/01/11 03:56:00;;;;;;;1.42;0.63;;;;;;;7.97;100.00;100032.66;5221292;28;20108;-76
2023/01/11 03:58:30;;;;;;;2.78;0.57;;;;;;;8.00;100.00;100023.00;5226050;28;20406;-77
2023/01/11 04:01:02;;;;;;;1.35;0.43;;;;;;;8.02;100.00;100021.19;5232041;28;20027;-77
2023/01/11 04:03:32;;;;;;;1.73;0.50;;;;;;;8.01;100.00;100016.88;5231406;28;20040;-76
2023/01/11 04:06:03;;;;;;;3.85;1.90;;;;;;;8.12;100.00;100017.38;5223033;28;20390;-77
2023/01/11 04:08:33;;;;;;;4.72;0.70;;;;;;;8.11;100.00;100014.81;5226395;28;20036;-77
2023/01/11 04:11:04;;;;;;;6.20;0.60;;;;;;;8.09;100.00;100012.28;5230944;28;20124;-76
2023/01/11 04:13:34;;;;;;;3.42;0.63;;;;;;;8.25;100.00;99992.63;5213672;28;20036;-76
2023/01/11 04:16:04;;;;;;;2.88;0.55;;;;;;;8.25;100.00;99997.84;5221432;28;20024;-76
2023/01/11 04:18:35;;;;;;;5.88;1.60;;;;;;;8.25;100.00;99992.63;5222704;28;20033;-76
2023/01/11 04:21:05;;;;;;;4.22;1.45;;;;;;;8.21;100.00;99998.84;5227492;28;20221;-75
2023/01/11 04:23:35;;;;;;;2.72;0.70;;;;;;;8.27;100.00;100003.00;5222739;28;20048;-76
2023/01/11 04:26:06;;;;;;;2.05;0.60;;;;;;;8.25;100.00;100004.81;5218824;28;20039;-76
2023/01/11 04:28:36;;;;;;;1.25;0.40;;;;;;;8.29;100.00;100001.19;5221942;28;20120;-76
2023/01/11 04:31:06;;;;;;;1.80;0.57;;;;;;;8.34;100.00;100002.72;5232579;28;20032;-77
2023/01/11 04:33:37;;;;;;;3.05;0.80;;;;;;;8.27;100.00;99983.06;5228296;28;20395;-76
2023/01/11 04:36:09;;;;;;;1.23;0.55;;;;;;;8.30;100.00;99984.66;5224201;28;20107;-75
2023/01/11 04:38:39;;;;;;;1.52;0.40;;;;;;;8.34;100.00;99974.09;5224463;28;20028;-76
2023/01/11 04:43:58;;;;;;;1.95;0.50;;;;;;;8.34;100.00;99966.28;5219161;28;20028;-76
2023/01/11 04:46:29;;;;;;;2.40;0.60;;;;;;;8.29;100.00;99973.44;5221540;28;20036;-77
2023/01/11 04:48:59;;;;;;;1.58;0.40;;;;;;;8.36;100.00;99959.28;5206324;28;20497;-76
2023/01/11 04:51:29;;;;;;;1.02;0.50;;;;;;;8.41;100.00;99959.09;5226540;28;20033;-76
2023/01/11 04:53:59;;;;;;;2.75;0.68;;;;;;;8.36;100.00;99961.03;5220607;28;20564;-76
2023/01/11 04:56:30;;;;;;;2.78;0.60;;;;;;;8.40;100.00;99957.41;5218520;28;20032;-75
2023/01/11 04:59:00;;;;;;;2.33;0.70;;;;;;;8.46;100.00;99955.44;5225944;28;20020;-76
2023/01/11 05:01:31;;;;;;;1.95;0.60;;;;;;;8.58;100.00;99972.34;5226670;28;20033;-77
2023/01/11 05:04:01;;;;;;;1.35;0.60;;;;;;;8.59;100.00;99967.06;5226911;28;20028;-77
2023/01/11 05:06:31;;;;;;;2.58;0.60;;;;;;;8.42;100.00;99963.41;5219368;28;20140;-76
2023/01/11 05:09:02;;;;;;;2.30;0.57;;;;;;;8.55;100.00;99960.28;5226827;28;20062;-76
2023/01/11 05:11:32;;;;;;;2.15;0.50;;;;;;;8.56;100.00;99954.16;5228468;28;20441;-77
2023/01/11 05:14:02;;;;;;;3.95;0.70;;;;;;;8.51;100.00;99956.09;5223178;28;20036;-77
2023/01/11 05:16:33;;;;;;;2.92;0.60;;;;;;;8.50;100.00;99959.63;5217720;28;20080;-77
2023/01/11 05:19:05;;;;;;;2.42;0.60;;;;;;;8.46;100.00;99955.44;5230992;28;20417;-77
2023/01/11 05:21:38;;;;;;;2.00;0.65;;;;;;;8.46;100.00;99960.66;5230761;28;20533;-77
2023/01/11 05:24:13;;;;;;;5.05;0.70;;;;;;;8.49;100.00;99954.44;5224953;28;20490;-77
2023/01/11 05:26:45;;;;;;;2.25;0.50;;;;;;;8.50;100.00;99962.22;5224039;28;20021;-76
2023/01/11 05:29:15;;;;;;;2.80;0.70;;;;;;;8.44;100.00;99946.84;5211322;28;20068;-76
2023/01/11 05:31:45;;;;;;;1.13;0.40;;;;;;;8.61;100.00;99949.66;5229377;28;20158;-77
2023/01/11 05:34:16;;;;;;;2.47;0.60;;;;;;;8.55;100.00;99943.84;5227593;28;20028;-77
2023/01/11 05:36:46;;;;;;;2.05;0.50;;;;;;;8.54;100.00;99942.97;5232786;28;20454;-76
2023/01/11 05:39:17;;;;;;;3.95;0.70;;;;;;;8.62;100.00;99940.06;5231584;28;20020;-77
2023/01/11 05:41:47;;;;;;;4.05;0.98;;;;;;;8.66;100.00;99941.66;5213828;28;20240;-76
2023/01/11 05:47:06;;;;;;;2.63;0.70;;;;;;;8.73;100.00;99932.72;5234256;28;20028;-76
2023/01/11 05:49:36;;;;;;;2.95;0.90;;;;;;;8.66;100.00;99931.22;5234990;28;20040;-76
2023/01/11 05:52:07;;;;;;;1.13;0.50;;;;;;;8.69;100.00;99936.34;5226248;28;20604;-76
2023/01/11 05:54:37;;;;;;;2.03;0.50;;;;;;;8.76;100.00;99923.00;5209112;28;20482;-76
2023/01/11 05:57:10;;;;;;;2.75;0.90;;;;;;;8.77;100.00;99922.13;5235595;28;20028;-77
2023/01/11 05:59:40;;;;;;;1.80;0.63;;;;;;;8.84;100.00;99926.19;5233658;28;20371;-77
2023/01/11 06:02:11;;;;;;;1.35;0.60;;;;;;;8.84;100.00;99926.19;5197053;28;20040;-77
2023/01/11 06:04:41;;;;;;;1.90;0.50;;;;;;;8.84;100.00;99922.72;5230525;28;20051;-77
2023/01/11 06:07:11;;;;;;;2.58;0.93;;;;;;;8.85;100.00;99919.19;5229322;28;20020;-77
2023/01/11 06:09:41;;;;;;;2.08;0.80;;;;;;;8.94;100.00;99916.25;5234534;28;20547;-76
2023/01/11 06:12:12;;;;;;;0.85;0.43;;;;;;;9.02;100.00;99919.38;5204541;28;20139;-76
2023/01/11 06:14:42;;;;;;;2.65;0.68;;;;;;;8.98;100.00;99916.06;5226794;28;20036;-77
2023/01/11 06:17:12;;;;;;;2.15;0.80;;;;;;;8.99;100.00;99928.19;5224690;28;20033;-74
2023/01/11 06:19:42;;;;;;;3.65;1.35;;;;;;;8.98;100.00;99933.44;5222481;28;20025;-76
2023/01/11 06:22:13;;;;;;;2.83;0.80;;;;;;;9.02;100.00;99925.47;5225933;28;20036;-77
2023/01/11 06:24:43;;;;;;;3.47;0.88;;;;;;;8.98;100.00;99923.03;5229336;28;20017;-77
2023/01/11 06:27:16;;;;;;;2.83;0.60;;;;;;;9.06;100.00;99937.44;5228044;28;20020;-76
2023/01/11 06:29:46;;;;;;;2.38;0.73;;;;;;;9.07;100.00;99915.69;5233317;28;20024;-76
2023/01/11 06:32:16;;;;;;;3.47;0.88;;;;;;;9.13;100.00;99918.91;5226892;28;20115;-76
2023/01/11 06:34:47;;;;;;;3.95;1.38;;;;;;;9.14;100.00;99919.75;5230531;28;20027;-76
2023/01/11 06:37:17;;;;;;;6.68;1.90;;;;;;;9.13;100.00;99922.41;5216265;28;20060;-77
2023/01/11 06:39:47;;;;;;;2.80;0.47;;;;;;;9.19;100.00;99923.88;5223364;28;20094;-76
2023/01/11 06:42:18;;;;;;;1.90;0.80;;;;;;;9.13;100.00;99915.47;5208651;28;20051;-77
2023/01/11 06:44:48;;;;;;;2.50;0.90;;;;;;;9.13;100.00;99920.69;5232844;28;20107;-76
2023/01/11 06:47:18;;;;;;;2.92;0.60;;;;;;;9.13;100.00;99915.47;5230163;28;20052;-76
2023/01/11 06:49:48;;;;;;;1.25;0.50;;;;;;;9.20;100.00;99922.97;5223455;28;20052;-76
2023/01/11 06:52:19;;;;;;;2.22;0.70;;;;;;;9.13;100.00;99918.06;5209944;28;20470;-76
2023/01/11 06:54:49;;;;;;;1.98;0.70;;;;;;;9.07;100.00;99920.91;5231123;28;20501;-74
2023/01/11 06:57:19;;;;;;;2.13;0.80;;;;;;;9.04;100.00;99913.22;5229899;28;20021;-76
2023/01/11 06:59:50;;;;;;;2.47;0.70;;;;;;;9.07;100.00;99907.88;5232068;28;20025;-76
2023/01/11 07:02:20;;;;;;;3.03;0.80;;;;;;;9.02;100.00;99917.63;5227694;28;20378;-77
2023/01/11 07:04:50;;;;;;;5.18;0.70;;;;;;;9.06;100.00;99913.16;5205572;28;20033;-76
2023/01/11 07:07:20;;;;;;;3.58;0.80;;;;;;;9.03;100.00;99915.91;5230839;28;20024;-77
2023/01/11 07:09:52;;;;;;;2.55;0.57;;;;;;;9.08;100.00;99919.97;5231988;28;20096;-77
2023/01/11 07:12:22;;;;;;;1.55;0.63;;;;;;;9.04;100.00;99915.81;5227470;28;20036;-77
2023/01/11 07:14:52;;;;;;;3.00;0.60;;;;;;;9.00;100.00;99922.06;5220260;28;20025;-76
2023/01/11 07:17:23;;;;;;;1.83;0.68;;;;;;;8.96;100.00;99920.50;5225462;28;20118;-78
2023/01/11 07:19:53;;;;;;;1.45;0.77;;;;;;;8.98;100.00;99923.88;5213979;28;20086;-77
2023/01/11 07:22:23;;;;;;;1.38;0.80;;;;;;;8.87;100.00;99928.66;5224333;28;20033;-76
2023/01/11 07:24:54;;;;;;;2.60;0.70;;;;;;;8.92;100.00;99929.31;5219796;28;20021;-77
2023/01/11 07:27:24;;;;;;;1.95;0.90;;;;;;;8.92;100.00;99920.66;5225619;28;20069;-77
2023/01/11 07:29:54;;;;;;;1.80;0.80;;;;;;;8.89;100.00;99918.19;5213900;28;20429;-77
2023/01/11 07:32:26;;;;;;;2.50;1.08;;;;;;;8.86;100.00;99924.34;5226961;28;20035;-77
2023/01/11 07:34:56;;;;;;;4.18;0.95;;;;;;;8.83;100.00;99921.00;5220994;28;20021;-77
2023/01/11 07:37:31;;;;;;;3.42;1.63;;;;;;;8.83;100.00;99924.47;5211575;28;20035;-77
2023/01/11 07:40:01;;;;;;;5.57;0.90;;;;;;;8.72;100.00;99926.63;5224123;28;20040;-77
2023/01/11 07:45:21;;;;;;;1.80;0.70;;;;;;;8.76;100.00;99923.00;5229512;28;20128;-76
2023/01/11 07:47:51;;;;;;;2.55;0.80;;;;;;;8.74;100.00;99917.00;5231247;28;20442;-77
2023/01/11 07:50:21;;;;;;;3.65;1.20;;;;;;;8.76;100.00;99932.59;5226657;28;20395;-77
2023/01/11 07:52:52;;;;;;;3.78;1.55;;;;;;;8.73;100.00;99917.91;5221496;28;20028;-78
2023/01/11 07:55:22;;;;;;;2.35;1.08;;;;;;;8.73;100.00;99928.34;5220861;28;20048;-77
2023/01/11 07:57:56;;;;;;;2.97;1.00;;;;;;;8.80;100.00;99911.59;5230273;28;20025;-76
2023/01/11 08:00:26;;;;;;;3.08;0.68;;;;;;;8.79;100.00;99917.69;5224691;28;20024;-77
2023/01/11 08:02:56;;;;;;;3.65;0.93;;;;;;;8.82;100.00;99920.19;5224552;28;20020;-75
2023/01/11 08:05:27;;;;;;;5.97;1.67;;;;;;;8.75;100.00;99925.69;5231074;28;20108;-76
2023/01/11 08:07:57;;;;;;;1.98;0.73;;;;;;;8.73;100.00;99933.53;5212175;28;20565;-77
2023/01/11 08:10:27;;;;;;;4.22;1.20;;;;;;;8.76;100.00;99925.59;5232243;28;20063;-76
2023/01/11 08:15:49;;;;;;;3.65;1.02;;;;;;;8.80;100.00;99922.00;5225512;28;20024;-76
2023/01/11 08:18:19;;;;;;;2.22;1.00;;;;;;;8.77;100.00;99929.94;5227314;28;20020;-77
2023/01/11 08:20:53;;;;;;;2.28;0.75;;;;;;;8.82;100.00;99920.19;5223426;28;20419;-77
2023/01/11 08:23:24;;;;;;;3.13;1.05;;;;;;;8.78;100.00;99923.81;5220559;28;20031;-76
2023/01/11 08:25:55;;;;;;;1.30;0.70;;;;;;;8.80;100.00;99929.81;5205368;28;20060;-76
2023/01/11 08:28:26;;;;;;;2.10;0.70;;;;;;;8.77;100.00;99934.28;5230112;28;20037;-76
2023/01/11 08:30:56;;;;;;;3.33;1.30;;;;;;;8.81;100.00;99934.13;5226948;28;20025;-77
2023/01/11 08:33:27;;;;;;;2.35;1.10;;;;;;;8.83;100.00;99929.69;5225823;28;20458;-74
2023/01/11 08:36:04;;;;;;;2.17;0.65;;;;;;;8.83;100.00;99926.22;5261707;22;20063;-73
2023/01/11 08:38:34;;;;;;;2.70;1.10;;;;;;;8.86;100.00;99934.78;5245884;28;20489;-73
2023/01/11 08:41:09;;;;;;;1.58;0.70;;;;;;;8.92;100.00;99939.75;5245916;28;20039;-73
2023/01/11 08:43:41;;;;;;;1.50;0.70;;;;;;;8.86;100.00;99945.19;5240338;28;20035;-73
2023/01/11 08:46:11;;;;;;;3.80;1.00;;;;;;;8.84;100.00;99939.19;5230210;28;20036;-73
2023/01/11 08:48:42;;;;;;;2.95;1.10;;;;;;;8.91;100.00;99932.84;5234726;28;20020;-74
2023/01/11 08:51:13;;;;;;;1.45;0.63;;;;;;;8.95;100.00;99939.66;5241753;28;20513;-73
2023/01/11 08:53:44;;;;;;;4.85;1.30;;;;;;;8.96;100.00;99940.47;5240672;28;20024;-73
2023/01/11 08:56:14;;;;;;;1.77;0.68;;;;;;;8.91;100.00;99945.88;5231475;28;20385;-73
2023/01/11 08:58:45;;;;;;;2.92;0.82;;;;;;;8.87;100.00;99954.72;5242229;28;20040;-73
2023/01/11 09:01:16;;;;;;;4.20;1.30;;;;;;;8.95;100.00;99944.84;5242681;28;20119;-74
2023/01/11 09:03:46;;;;;;;2.50;1.00;;;;;;;8.95;100.00;99946.59;5248560;28;20102;-74
2023/01/11 09:06:17;;;;;;;2.78;0.60;;;;;;;9.05;100.00;99940.13;5249203;28;20027;-74
2023/01/11 09:08:48;;;;;;;1.42;0.75;;;;;;;9.06;100.00;99941.81;5241047;28;20028;-73
2023/01/11 09:14:07;;;;;;;2.53;0.85;;;;;;;9.05;100.00;99943.56;5246322;28;20123;-73
2023/01/11 09:16:37;;;;;;;2.50;1.10;;;;;;;8.98;100.00;99944.72;5240485;28;20021;-73
2023/01/11 09:19:07;;;;;;;3.28;1.25;;;;;;;9.00;100.00;99957.69;5252778;28;20085;-73
2023/01/11 09:21:38;;;;;;;5.03;1.30;;;;;;;8.98;100.00;99956.91;5242006;28;20063;-73
2023/01/11 09:24:08;;;;;;;3.15;1.13;;;;;;;9.09;100.00;99952.97;5240042;28;20151;-74
2023/01/11 09:26:40;;;;;;;3.33;1.00;;;;;;;9.01;100.00;99957.63;5245592;28;20237;-74
2023/01/11 09:29:11;;;;;;;2.65;1.05;;;;;;;8.97;100.00;99956.06;5249186;28;20379;-74
2023/01/11 09:31:41;;;;;;;3.75;0.90;;;;;;;9.14;100.00;99953.66;5241547;28;20081;-73
2023/01/11 09:34:12;;;;;;;3.88;1.60;;;;;;;9.07;100.00;99960.00;5240145;28;20103;-72
2023/01/11 09:36:44;;;;;;;4.28;1.38;;;;;;;9.09;100.00;99963.38;5248886;28;20024;-75
2023/01/11 09:39:17;;;;;;;4.50;0.77;;;;;;;9.10;100.00;99972.91;5234951;28;20020;-73
2023/01/11 09:42:10;;;;;;;2.50;1.02;;;;;;;9.05;100.00;99972.25;5238947;28;20469;-73
2023/01/11 09:44:52;;;;;;;5.55;1.23;;;;;;;9.07;100.00;99969.59;5241698;28;20097;-74
2023/01/11 09:47:35;;;;;;;3.90;1.55;;;;;;;9.11;100.00;99966.81;5226111;28;20056;-73
2023/01/11 09:50:13;;;;;;;2.67;0.80;;;;;;;9.13;100.00;99968.41;5246212;28;20063;-74
2023/01/11 09:52:51;;;;;;;5.40;1.00;;;;;;;9.05;100.00;99969.63;5241061;28;20389;-73
2023/01/11 09:55:45;;;;;;;2.78;1.17;;;;;;;9.02;100.00;99972.38;5239478;28;20116;-75
2023/01/11 09:58:28;;;;;;;2.95;1.00;;;;;;;9.06;100.00;99967.88;5240516;28;20028;-74
2023/01/11 10:01:19;;;;;;;3.63;1.60;;;;;;;9.06;100.00;99963.50;5241951;28;20021;-72
2023/01/11 10:04:22;;;;;;;1.13;0.57;;;;;;;9.19;100.00;99969.94;5226580;28;20510;-73
2023/01/11 10:07:02;;;;;;;2.85;1.10;;;;;;;9.10;100.00;99961.63;5246857;28;20032;-73
2023/01/11 10:09:40;;;;;;;2.95;1.00;;;;;;;9.08;100.00;99953.03;5235916;28;20028;-74
2023/01/11 10:12:10;;;;;;;2.83;1.33;;;;;;;9.10;100.00;99954.66;5247568;28;20398;-74
2023/01/11 10:14:49;;;;;;;2.73;1.27;;;;;;;9.16;100.00;99957.03;5253225;28;20020;-74
2023/01/11 10:17:50;;;;;;;4.93;1.23;;;;;;;9.15;100.00;99953.56;5230814;28;20361;-74
2023/01/11 10:20:39;;;;;;;1.38;0.43;;;;;;;9.19;100.00;99967.34;5244899;28;20027;-75
2023/01/11 10:23:20;;;;;;;3.97;1.45;;;;;;;9.24;100.00;99970.59;5244465;28;20025;-73
2023/01/11 10:25:55;;;;;;;4.43;1.60;;;;;;;9.29;100.00;99972.13;5249112;28;20022;-74
2023/01/11 10:28:38;;;;;;;2.70;1.27;;;;;;;9.24;100.00;99976.69;5253561;28;20064;-72
2023/01/11 10:31:43;;;;;;;2.50;0.93;;;;;;;9.32;100.00;99971.16;5247442;28;20508;-74
2023/01/11 10:43:11;;;;;;;2.75;1.20;;;;;;;9.30;100.00;99947.75;5245314;28;20033;-74
2023/01/11 10:45:49;;;;;;;1.42;0.60;;;;;;;9.28;100.00;99927.88;5253832;28;20027;-72
2023/01/11 10:48:32;;;;;;;1.00;0.40;;;;;;;9.29;100.00;99926.97;5248173;28;20055;-74
2023/01/11 10:51:28;;;;;;;2.80;0.50;;;;;;;9.29;100.00;99930.41;5246760;28;20086;-74
2023/01/11 10:54:16;;;;;;;3.20;1.30;;;;;;;9.25;100.00;99933.19;5243072;28;20058;-73
2023/01/11 10:57:12;;;;;;;2.13;1.00;;;;;;;9.29;100.00;99922.59;5247199;28;20108;-73
2023/01/11 11:00:20;;;;;;;1.02;0.47;;;;;;;9.29;100.00;99935.63;5228762;28;20262;-73
2023/01/11 11:03:09;;;;;;;1.55;0.63;;;;;;;9.30;100.00;99933.88;5227609;28;20137;-73
2023/01/11 11:05:57;;;;;;;3.10;0.70;;;;;;;9.34;100.00;99932.84;5251682;28;20347;-75
2023/01/11 11:08:28;;;;;;;1.45;0.80;;;;;;;9.27;100.00;99931.38;5231757;28;20245;-74
2023/01/11 11:11:39;;;;;;;2.22;0.60;;;;;;;9.41;100.00;99926.44;5229784;28;20085;-74
2023/01/11 11:14:22;;;;;;;2.22;0.60;;;;;;;9.32;100.00;99924.22;5244535;28;20050;-73
2023/01/11 11:17:04;;;;;;;1.65;0.50;;;;;;;9.33;100.00;99931.13;5244562;28;20386;-74
2023/01/11 11:19:34;;;;;;;1.65;0.55;;;;;;;9.38;100.00;99918.75;5252521;28;20028;-73
2023/01/11 11:22:06;;;;;;;3.28;0.70;;;;;;;9.39;100.00;99923.06;5242702;28;20040;-73
2023/01/11 11:24:46;;;;;;;1.08;0.60;;;;;;;9.42;100.00;99922.91;5244653;28;20035;-73
2023/01/11 11:27:41;;;;;;;1.13;0.70;;;;;;;9.31;100.00;99922.53;5243758;28;20577;-73
2023/01/11 11:30:13;;;;;;;1.80;0.65;;;;;;;9.39;100.00;99905.66;5242347;28;20039;-73
2023/01/11 11:32:55;;;;;;;1.63;0.50;;;;;;;9.40;100.00;99896.06;5244717;28;20107;-74
2023/01/11 11:35:36;;;;;;;2.28;0.30;;;;;;;9.49;100.00;99903.53;5243797;28;20082;-73
2023/01/11 11:38:26;;;;;;;1.00;0.30;;;;;;;9.36;100.00;99894.50;5222867;28;20055;-74
2023/01/11 11:41:04;;;;;;;1.95;0.40;;;;;;;9.47;100.00;99902.75;5244437;28;20043;-73
2023/01/11 11:43:37;;;;;;;2.38;0.40;;;;;;;9.42;100.00;99902.94;5232454;28;20047;-74
2023/01/11 11:46:13;;;;;;;0.68;0.30;;;;;;;9.49;100.00;99916.56;5246182;28;21025;-74
2023/01/11 11:49:04;;;;;;;2.22;0.35;;;;;;;9.41;100.00;99916.00;5224125;28;20028;-74
2023/01/11 11:51:34;;;;;;;1.20;0.50;;;;;;;9.45;100.00;99915.00;5223526;28;20509;-74
2023/01/11 11:54:05;;;;;;;0.40;0.32;;;;;;;9.41;100.00;99919.47;5241950;28;20036;-74
2023/01/11 11:56:40;;;;;;;3.25;0.55;;;;;;;9.40;100.00;99919.53;5246363;28;20037;-73
2023/01/11 11:59:15;;;;;;;2.38;0.50;;;;;;;9.42;100.00;99920.31;5246932;28;20406;-73
2023/01/11 12:01:54;;;;;;;1.08;0.30;;;;;;;9.45;100.00;99913.22;5253035;28;20043;-73
2023/01/11 12:04:46;;;;;;;0.40;0.30;;;;;;;9.45;100.00;99909.78;5235625;28;20036;-73
2023/01/11 12:07:22;;;;;;;0.65;0.40;;;;;;;9.52;100.00;99917.25;5244724;28;20032;-74
2023/01/11 12:10:03;;;;;;;2.72;0.70;;;;;;;9.47;100.00;99921.81;5246387;28;20020;-75
2023/01/11 12:12:51;;;;;;;0.95;0.50;;;;;;;9.47;100.00;99923.59;5244387;28;20033;-73
2023/01/11 12:15:30;;;;;;;0.57;0.30;;;;;;;9.54;100.00;99914.59;5242934;28;20016;-73
2023/01/11 12:18:26;;;;;;;1.38;0.40;;;;;;;9.51;100.00;99935.59;5224755;28;20353;-73
2023/01/11 12:21:08;;;;;;;0.30;0.30;;;;;;;9.44;100.00;99923.69;5244647;28;20535;-74
2023/01/11 12:23:39;;;;;;;1.00;0.57;;;;;;;9.44;100.00;99921.97;5240651;28;20115;-74
2023/01/11 12:26:20;;;;;;;0.88;0.50;;;;;;;9.46;100.00;99921.91;5245859;28;20478;-75
2023/01/11 12:29:05;;;;;;;0.70;0.60;;;;;;;9.52;100.00;99921.63;5245108;28;20344;-73
2023/01/11 12:31:43;;;;;;;0.83;0.50;;;;;;;9.49;100.00;99919.16;5244272;28;20494;-73
2023/01/11 12:34:35;;;;;;;2.05;0.50;;;;;;;9.48;100.00;99920.09;5232437;28;20649;-74
2023/01/11 12:37:14;;;;;;;1.15;0.40;;;;;;;9.41;100.00;99918.63;5243089;28;20528;-73
2023/01/11 12:39:56;;;;;;;2.80;0.77;;;;;;;9.46;100.00;99921.91;5252304;28;20068;-75
2023/01/11 12:43:02;;;;;;;2.63;0.65;;;;;;;9.44;100.00;99918.47;5244053;28;20521;-73
2023/01/11 12:45:48;;;;;;;1.98;0.63;;;;;;;9.47;100.00;99928.81;5244755;28;20505;-73
2023/01/11 12:48:33;;;;;;;1.05;0.50;;;;;;;9.40;100.00;99936.03;5229513;28;20212;-73
2023/01/11 12:51:21;;;;;;;2.08;0.50;;;;;;;9.43;100.00;99929.84;5245109;28;20344;-75
2023/01/11 12:54:05;;;;;;;0.95;0.45;;;;;;;9.40;100.00;99932.56;5232723;28;20069;-72